Shanksville, Pennsylvania
Current Conditions -  °F | °C
As of 12:15 PM on Thursday 18 Dec 2014 (Local Time) from K2G9 Reporting Station
Overcast Overcast  
Wind Chill: 12°   Ceiling: 1400
Heat Index: 25°   Visibility: 7mi
Dew Point: 19°   Wind: 15mph
Humidity: 80%   Direction: 290°WNW
Pressure: 30.09"   Gusts: NA
Location:  40.02°N, 78.91°W
Report Text: K2G9 181715Z AUTO 29013KT 7SM OVC014 M04/M07 A3009 RMK AO2
Loading
Personal Weather Stations






























Interactive Weather Map New forecast layout! Learn more

10-Day Weather Forecast

Advertisements
Track Severe Weather on mobile